createdAt,value
2023-01-20T00:01:12.300Z,100288.97
2023-01-20T00:03:39.743Z,100279.44
2023-01-20T00:06:06.292Z,100282.09
2023-01-20T00:08:32.917Z,100282.25
2023-01-20T00:10:59.778Z,100281.41
2023-01-20T00:13:26.194Z,100284.06
2023-01-20T00:15:52.582Z,100284.06
2023-01-20T00:18:19.085Z,100290.34
2023-01-20T00:20:45.524Z,100289.66
2023-01-20T00:23:12.035Z,100289.75
2023-01-20T00:25:38.579Z,100288.94
2023-01-20T00:28:05.211Z,100294.34
2023-01-20T00:30:32.007Z,100297.28
2023-01-20T00:32:58.909Z,100298.38
2023-01-20T00:35:25.236Z,100295.97
2023-01-20T00:37:51.607Z,100302.50
2023-01-20T00:40:18.109Z,100303.59
2023-01-20T00:42:44.523Z,100306.53
2023-01-20T00:45:11.735Z,100306.66
2023-01-20T00:47:38.427Z,100312.94
2023-01-20T00:50:05.306Z,100308.59
2023-01-20T00:52:31.725Z,100307.88
2023-01-20T00:54:58.047Z,100308.00
2023-01-20T00:57:24.381Z,100308.97
2023-01-20T00:59:50.756Z,100322.38
2023-01-20T01:02:17.190Z,100318.19
2023-01-20T01:04:43.685Z,100324.59
2023-01-20T01:07:10.030Z,100330.75
2023-01-20T01:09:36.350Z,100334.34
2023-01-20T01:12:02.758Z,100337.88
2023-01-20T01:14:31.669Z,100336.06
2023-01-20T01:16:58.087Z,100339.53
2023-01-20T01:19:24.684Z,100335.22
2023-01-20T01:21:51.288Z,100343.19
2023-01-20T01:24:17.626Z,100340.53
2023-01-20T01:26:44.035Z,100349.19
2023-01-20T01:29:10.665Z,100340.25
2023-01-20T01:31:37.204Z,100347.13
2023-01-20T01:34:03.595Z,100344.59
2023-01-20T01:36:30.013Z,100350.63
2023-01-20T01:38:58.759Z,100346.16
2023-01-20T01:41:26.106Z,100354.00
2023-01-20T01:44:08.614Z,100354.97
2023-01-20T01:46:35.495Z,100351.34
2023-01-20T01:49:08.828Z,100360.28
2023-01-20T01:51:50.039Z,100358.59
2023-01-20T01:54:21.381Z,100352.44
2023-01-20T01:56:49.888Z,100365.59
2023-01-20T01:59:18.251Z,100365.59
2023-01-20T02:01:48.610Z,100360.28
2023-01-20T02:04:17.305Z,100367.28
2023-01-20T02:07:00.586Z,100369.06
2023-01-20T02:09:28.601Z,100368.25
2023-01-20T02:11:59.290Z,100369.94
2023-01-20T02:14:31.381Z,100375.25
2023-01-20T02:17:28.710Z,100374.28
2023-01-20T02:20:17.979Z,100375.00
2023-01-20T02:22:58.880Z,100374.00
2023-01-20T02:26:00.020Z,100384.38
2023-01-20T02:29:07.263Z,100374.63
2023-01-20T02:31:51.726Z,100378.97
2023-01-20T02:34:27.258Z,100389.47
2023-01-20T02:37:17.228Z,100384.16
2023-01-20T02:39:56.850Z,100385.84
2023-01-20T02:42:29.189Z,100383.19
2023-01-20T02:45:06.439Z,100388.50
2023-01-20T02:47:50.675Z,100395.47
2023-01-20T02:50:28.641Z,100389.22
2023-01-20T02:52:58.597Z,100400.69
2023-01-20T02:55:30.852Z,100394.38
2023-01-20T02:58:05.603Z,100395.22
2023-01-20T03:00:37.716Z,100405.63
2023-01-20T03:03:10.392Z,100408.28
2023-01-20T03:05:42.861Z,100409.94
2023-01-20T03:08:13.011Z,100410.78
2023-01-20T03:10:42.166Z,100421.41
2023-01-20T03:13:14.552Z,100420.31
2023-01-20T03:15:55.891Z,100413.31
2023-01-20T03:18:22.569Z,100416.94
2023-01-20T03:20:48.983Z,100418.66
2023-01-20T03:23:15.520Z,100424.78
2023-01-20T03:25:45.803Z,100428.28
2023-01-20T03:28:12.133Z,100425.50
2023-01-20T03:30:38.548Z,100431.94
2023-01-20T03:33:05.555Z,100427.44
2023-01-20T03:35:32.423Z,100430.22
2023-01-20T03:37:58.865Z,100421.41
2023-01-20T03:40:31.747Z,100425.78
2023-01-20T03:43:15.391Z,100425.88
2023-01-20T03:45:53.990Z,100434.84
2023-01-20T03:48:38.664Z,100428.66
2023-01-20T03:51:18.235Z,100431.47
2023-01-20T03:53:52.622Z,100435.06
2023-01-20T03:56:21.556Z,100440.38
2023-01-20T03:58:52.017Z,100434.38
2023-01-20T04:01:22.829Z,100439.78
2023-01-20T04:03:53.137Z,100440.63
2023-01-20T04:06:23.479Z,100441.59
2023-01-20T04:08:57.077Z,100439.78
2023-01-20T04:11:23.723Z,100438.94
2023-01-20T04:13:50.954Z,100442.59
2023-01-20T04:16:19.815Z,100436.41
2023-01-20T04:18:49.473Z,100436.41
2023-01-20T04:21:21.912Z,100434.63
2023-01-20T04:23:55.267Z,100447.91
2023-01-20T04:26:21.640Z,100447.03
2023-01-20T04:28:48.008Z,100458.53
2023-01-20T04:31:28.956Z,100447.91
2023-01-20T04:33:56.377Z,100460.19
2023-01-20T04:36:22.765Z,100461.88
2023-01-20T04:38:49.097Z,100465.41
2023-01-20T04:41:15.572Z,100460.78
2023-01-20T04:43:45.043Z,100466.09
2023-01-20T04:46:12.910Z,100474.06
2023-01-20T04:48:39.307Z,100459.84
2023-01-20T04:51:06.906Z,100463.34
2023-01-20T04:53:33.579Z,100464.16
2023-01-20T04:56:00.102Z,100468.66
2023-01-20T04:58:26.559Z,100474.78
2023-01-20T05:00:52.890Z,100466.00
2023-01-20T05:03:19.885Z,100472.25
2023-01-20T05:05:55.301Z,100480.22
2023-01-20T05:08:22.325Z,100477.72
2023-01-20T05:10:48.866Z,100474.22
2023-01-20T05:13:15.280Z,100480.47
2023-01-20T05:15:44.040Z,100484.09
2023-01-20T05:18:10.506Z,100485.94
2023-01-20T05:20:36.837Z,100483.38
2023-01-20T05:23:03.467Z,100483.38
2023-01-20T05:25:30.121Z,100487.84
2023-01-20T05:27:56.537Z,100494.00
2023-01-20T05:30:22.986Z,100495.81
2023-01-20T05:32:50.224Z,100496.66
2023-01-20T05:35:17.316Z,100499.31
2023-01-20T05:37:44.147Z,100509.00
2023-01-20T05:40:11.173Z,100509.00
2023-01-20T05:42:37.669Z,100503.69
2023-01-20T05:45:04.446Z,100520.31
2023-01-20T05:47:30.910Z,100514.16
2023-01-20T05:49:57.316Z,100515.97
2023-01-20T05:52:23.677Z,100519.47
2023-01-20T05:54:50.085Z,100526.59
2023-01-20T05:57:18.296Z,100530.00
2023-01-20T05:59:47.614Z,100528.19
2023-01-20T06:02:18.718Z,100530.69
2023-01-20T06:04:49.031Z,100530.69
2023-01-20T06:07:15.795Z,100534.22
2023-01-20T06:09:42.327Z,100534.06
2023-01-20T06:12:08.943Z,100540.38
2023-01-20T06:14:35.290Z,100540.38
2023-01-20T06:17:01.700Z,100538.56
2023-01-20T06:19:28.158Z,100547.34
2023-01-20T06:21:54.531Z,100549.19
2023-01-20T06:24:20.912Z,100543.03
2023-01-20T06:26:50.165Z,100552.66
2023-01-20T06:29:16.672Z,100545.53
2023-01-20T06:31:44.369Z,100554.38
2023-01-20T06:34:12.115Z,100552.56
2023-01-20T06:36:38.916Z,100555.31
2023-01-20T06:39:05.563Z,100552.81
2023-01-20T06:41:32.190Z,100559.81
2023-01-20T06:43:58.634Z,100565.38
2023-01-20T06:46:25.013Z,100563.78
2023-01-20T06:48:51.539Z,100567.44
2023-01-20T06:51:20.039Z,100566.56
2023-01-20T06:53:47.475Z,100580.72
2023-01-20T06:56:15.228Z,100580.72
2023-01-20T06:58:42.080Z,100586.72
2023-01-20T07:01:12.144Z,100590.25
2023-01-20T07:03:38.708Z,100592.91
2023-01-20T07:06:15.429Z,100589.13
2023-01-20T07:08:43.743Z,100586.47
2023-01-20T07:11:10.192Z,100590.84
2023-01-20T07:13:36.595Z,100596.25
2023-01-20T07:16:03.208Z,100596.25
2023-01-20T07:18:29.622Z,100605.06
2023-01-20T07:20:56.975Z,100614.00
2023-01-20T07:23:24.120Z,100606.88
2023-01-20T07:25:58.446Z,100614.75
2023-01-20T07:28:24.861Z,100617.41
2023-01-20T07:30:51.331Z,100620.06
2023-01-20T07:33:17.728Z,100621.75
2023-01-20T07:35:44.176Z,100627.88
2023-01-20T07:38:10.603Z,100628.75
2023-01-20T07:40:36.970Z,100635.84
2023-01-20T07:43:04.404Z,100631.53
2023-01-20T07:45:30.850Z,100636.94
2023-01-20T07:47:57.264Z,100640.56
2023-01-20T07:50:23.696Z,100640.72
2023-01-20T07:52:50.124Z,100644.22
2023-01-20T07:55:16.936Z,100652.19
2023-01-20T07:57:43.531Z,100664.63
2023-01-20T08:00:10.517Z,100663.66
2023-01-20T08:02:40.391Z,100663.50
2023-01-20T08:05:07.459Z,100670.53
2023-01-20T08:07:33.890Z,100669.44
2023-01-20T08:10:00.305Z,100667.63
2023-01-20T08:12:28.572Z,100674.63
2023-01-20T08:14:55.502Z,100679.00
2023-01-20T08:17:22.262Z,100687.69
2023-01-20T08:19:48.693Z,100686.72
2023-01-20T08:22:15.532Z,100683.97
2023-01-20T08:24:41.892Z,100686.47
2023-01-20T08:27:08.208Z,100690.84
2023-01-20T08:29:34.825Z,100688.03
2023-01-20T08:32:01.184Z,100698.56
2023-01-20T08:34:28.719Z,100693.97
2023-01-20T08:36:57.255Z,100694.69
2023-01-20T08:39:23.913Z,100699.75
2023-01-20T08:41:51.082Z,100702.22
2023-01-20T08:44:18.316Z,100701.13
2023-01-20T08:46:45.027Z,100708.00
2023-01-20T08:49:16.734Z,100704.25
2023-01-20T08:51:44.792Z,100708.59
2023-01-20T08:54:11.384Z,100706.53
2023-01-20T08:56:37.811Z,100705.44
2023-01-20T08:59:04.873Z,100715.13
2023-01-20T09:01:35.730Z,100712.34
2023-01-20T09:04:06.095Z,100710.41
2023-01-20T09:06:45.245Z,100717.31
2023-01-20T09:09:13.648Z,100723.47
2023-01-20T09:11:40.533Z,100727.69
2023-01-20T09:14:07.032Z,100730.25
2023-01-20T09:16:33.463Z,100739.88
2023-01-20T09:18:59.884Z,100742.31
2023-01-20T09:21:26.412Z,100747.50
2023-01-20T09:23:52.867Z,100752.69
2023-01-20T09:26:34.285Z,100748.09
2023-01-20T09:29:09.829Z,100755.00
2023-01-20T09:31:44.163Z,100756.47
2023-01-20T09:34:19.285Z,100751.97
2023-01-20T09:36:46.213Z,100758.97
2023-01-20T09:39:33.095Z,100749.81
2023-01-20T09:42:24.524Z,100759.22
2023-01-20T09:45:06.649Z,100762.50
2023-01-20T09:47:42.827Z,100766.72
2023-01-20T09:50:33.806Z,100761.16
2023-01-20T09:53:43.851Z,100765.38
2023-01-20T09:56:22.779Z,100768.63
2023-01-20T09:59:10.639Z,100777.25
2023-01-20T10:01:48.549Z,100776.16
2023-01-20T10:04:33.842Z,100775.91
2023-01-20T10:07:07.606Z,100780.97
2023-01-20T10:10:04.578Z,100783.47
2023-01-20T10:12:37.043Z,100786.88
2023-01-20T10:15:18.419Z,100785.78
2023-01-20T10:17:44.769Z,100789.19
2023-01-20T10:20:11.498Z,100790.84
2023-01-20T10:22:45.805Z,100795.97
2023-01-20T10:25:41.311Z,100800.03
2023-01-20T10:28:12.171Z,100789.03
2023-01-20T10:30:38.901Z,100793.25
2023-01-20T10:33:14.357Z,100800.16
2023-01-20T10:35:46.210Z,100789.38
2023-01-20T10:38:32.797Z,100793.59
2023-01-20T10:41:26.778Z,100792.66
2023-01-20T10:43:53.567Z,100789.00
2023-01-20T10:46:35.661Z,100793.38
2023-01-20T10:49:25.529Z,100787.94
2023-01-20T10:52:26.241Z,100790.34
2023-01-20T10:55:20.453Z,100796.28
2023-01-20T10:58:16.154Z,100789.97
2023-01-20T11:00:44.138Z,100793.38
2023-01-20T11:03:15.745Z,100801.09
2023-01-20T11:05:43.233Z,100799.28
2023-01-20T11:08:26.581Z,100796.50
2023-01-20T11:11:10.298Z,100800.84
2023-01-20T11:13:36.738Z,100800.72
2023-01-20T11:16:12.949Z,100803.25
2023-01-20T11:18:39.431Z,100801.44
2023-01-20T11:21:09.018Z,100808.47
2023-01-20T11:23:38.274Z,100812.69
2023-01-20T11:26:37.457Z,100822.25
2023-01-20T11:29:10.058Z,100815.94
2023-01-20T11:31:41.402Z,100820.31
2023-01-20T11:34:31.780Z,100825.63
2023-01-20T11:37:07.352Z,100828.31
2023-01-20T11:39:36.518Z,100837.13
2023-01-20T11:42:32.059Z,100835.19
2023-01-20T11:45:19.726Z,100841.38
2023-01-20T11:48:00.334Z,100832.38
2023-01-20T11:50:35.181Z,100834.09
2023-01-20T11:53:33.962Z,100843.88
2023-01-20T11:56:02.032Z,100842.19
2023-01-20T11:58:32.785Z,100837.72
2023-01-20T12:01:03.636Z,100836.88
2023-01-20T12:04:14.276Z,100840.38
2023-01-20T12:07:05.925Z,100844.59
2023-01-20T12:09:40.020Z,100841.84
2023-01-20T12:12:25.678Z,100845.34
2023-01-20T12:15:00.074Z,100844.34
2023-01-20T12:17:37.097Z,100852.22
2023-01-20T12:20:26.382Z,100855.75
2023-01-20T12:23:14.435Z,100855.75
2023-01-20T12:25:48.850Z,100856.56
2023-01-20T12:28:21.658Z,100858.28
2023-01-20T12:30:58.980Z,100858.28
2023-01-20T12:33:35.390Z,100862.63
2023-01-20T12:36:10.634Z,100861.66
2023-01-20T12:38:51.899Z,100865.88
2023-01-20T12:41:43.247Z,100866.75
2023-01-20T12:44:36.783Z,100872.78
2023-01-20T12:47:25.139Z,100871.81
2023-01-20T12:50:19.557Z,100872.56
2023-01-20T12:52:55.892Z,100875.06
2023-01-20T12:55:28.209Z,100878.47
2023-01-20T12:58:23.087Z,100879.19
2023-01-20T13:00:57.012Z,100881.72
2023-01-20T13:04:01.302Z,100879.78
2023-01-20T13:06:50.148Z,100886.78
2023-01-20T13:09:25.590Z,100888.50
2023-01-20T13:12:09.360Z,100891.00
2023-01-20T13:14:54.318Z,100895.25
2023-01-20T13:17:42.531Z,100902.28
2023-01-20T13:20:30.017Z,100900.34
2023-01-20T13:23:00.683Z,100898.38
2023-01-20T13:25:28.249Z,100899.09
2023-01-20T13:27:54.818Z,100904.16
2023-01-20T13:30:44.732Z,100904.63
2023-01-20T13:33:26.815Z,100903.41
2023-01-20T13:35:53.456Z,100910.19
2023-01-20T13:38:27.695Z,100915.97
2023-01-20T13:41:00.251Z,100909.41
2023-01-20T13:43:29.305Z,100917.88
2023-01-20T13:46:04.921Z,100914.94
2023-01-20T13:48:33.855Z,100918.34
2023-01-20T13:51:15.288Z,100917.25
2023-01-20T13:53:43.034Z,100918.91
2023-01-20T13:56:27.084Z,100929.47
2023-01-20T13:58:59.881Z,100929.47
2023-01-20T14:01:27.805Z,100930.44
2023-01-20T14:04:14.683Z,100926.09
2023-01-20T14:06:52.672Z,100925.34
2023-01-20T14:09:23.854Z,100935.44
2023-01-20T14:11:52.542Z,100942.72
2023-01-20T14:14:21.537Z,100940.31
2023-01-20T14:16:48.874Z,100941.44
2023-01-20T14:19:24.887Z,100952.22
2023-01-20T14:21:54.967Z,100949.69
2023-01-20T14:24:30.902Z,100951.63
2023-01-20T14:27:22.566Z,100954.56
2023-01-20T14:29:51.897Z,100950.44
2023-01-20T14:32:28.316Z,100956.13
2023-01-20T14:35:18.269Z,100958.47
2023-01-20T14:38:02.151Z,100969.88
2023-01-20T14:40:31.401Z,100976.81
2023-01-20T14:43:00.418Z,100973.94
2023-01-20T14:45:31.440Z,100980.72
2023-01-20T14:47:59.918Z,100983.03
2023-01-20T14:50:26.616Z,100992.47
2023-01-20T14:52:53.026Z,101002.66
2023-01-20T14:55:43.269Z,101005.81
2023-01-20T14:58:17.692Z,101017.66
2023-01-20T15:00:46.383Z,101020.81
2023-01-20T15:03:19.151Z,101017.66
2023-01-20T15:06:29.628Z,101023.44
2023-01-20T15:09:06.444Z,101037.22
2023-01-20T15:11:34.327Z,101038.66
2023-01-20T15:14:00.796Z,101049.75
2023-01-20T15:16:49.385Z,101057.38
2023-01-20T15:19:19.814Z,101051.56
2023-01-20T15:22:05.983Z,101057.00
2023-01-20T15:24:37.310Z,101064.38
2023-01-20T15:27:21.407Z,101067.13
2023-01-20T15:30:14.214Z,101075.00
2023-01-20T15:32:40.825Z,101070.53
2023-01-20T15:35:07.527Z,101076.69
2023-01-20T15:37:33.886Z,101084.56
2023-01-20T15:40:00.424Z,101086.25
2023-01-20T15:42:38.831Z,101092.31
2023-01-20T15:45:05.679Z,101107.31
2023-01-20T15:47:33.052Z,101102.84
2023-01-20T15:49:59.356Z,101106.38
2023-01-20T15:52:26.290Z,101115.19
2023-01-20T15:54:52.622Z,101108.16
2023-01-20T15:57:19.010Z,101113.47
2023-01-20T15:59:46.110Z,101118.81
2023-01-20T16:02:23.365Z,101120.63
2023-01-20T16:04:50.048Z,101128.63
2023-01-20T16:07:19.035Z,101133.22
2023-01-20T16:09:46.603Z,101135.97
2023-01-20T16:12:14.710Z,101138.88
2023-01-20T16:14:41.840Z,101142.47
2023-01-20T16:17:21.062Z,101142.72
2023-01-20T16:19:48.676Z,101154.56
2023-01-20T16:22:15.306Z,101160.22
2023-01-20T16:24:42.325Z,101161.63
2023-01-20T16:27:22.265Z,101168.34
2023-01-20T16:29:49.403Z,101176.03
2023-01-20T16:32:17.823Z,101187.34
2023-01-20T16:34:45.866Z,101190.78
2023-01-20T16:37:14.249Z,101190.56
2023-01-20T16:39:40.976Z,101195.69
2023-01-20T16:42:10.701Z,101201.66
2023-01-20T16:44:38.761Z,101211.22
2023-01-20T16:47:05.614Z,101214.41
2023-01-20T16:49:31.937Z,101215.78
2023-01-20T16:51:58.267Z,101226.81
2023-01-20T16:54:24.605Z,101228.84
2023-01-20T16:56:50.973Z,101230.84
2023-01-20T16:59:17.930Z,101238.09
2023-01-20T17:01:47.937Z,101243.41
2023-01-20T17:04:14.623Z,101247.00
2023-01-20T17:06:41.181Z,101257.63
2023-01-20T17:09:07.520Z,101254.13
2023-01-20T17:11:36.567Z,101264.72
2023-01-20T17:14:05.663Z,101265.56
2023-01-20T17:16:32.944Z,101269.28
2023-01-20T17:19:01.083Z,101269.41
2023-01-20T17:21:29.400Z,101269.72
2023-01-20T17:23:58.927Z,101287.63
2023-01-20T17:26:25.756Z,101290.69
2023-01-20T17:29:02.755Z,101289.09
2023-01-20T17:31:29.397Z,101300.97
2023-01-20T17:33:55.798Z,101294.06
2023-01-20T17:36:22.779Z,101304.78
2023-01-20T17:38:49.116Z,101304.88
2023-01-20T17:41:15.537Z,101304.97
2023-01-20T17:43:46.487Z,101305.94
2023-01-20T17:46:12.987Z,101308.59
2023-01-20T17:48:39.415Z,101314.88
2023-01-20T17:51:16.655Z,101310.47
2023-01-20T17:53:43.465Z,101312.38
2023-01-20T17:56:13.279Z,101321.38
2023-01-20T17:58:40.850Z,101323.31
2023-01-20T18:01:17.570Z,101336.75
2023-01-20T18:03:44.682Z,101346.72
2023-01-20T18:06:13.026Z,101347.13
2023-01-20T18:08:40.194Z,101354.53
2023-01-20T18:11:21.664Z,101361.91
2023-01-20T18:13:50.128Z,101359.66
2023-01-20T18:16:18.654Z,101365.31
2023-01-20T18:18:46.742Z,101364.75
2023-01-20T18:21:24.105Z,101373.94
2023-01-20T18:23:50.863Z,101372.53
2023-01-20T18:26:20.069Z,101375.47
2023-01-20T18:28:47.952Z,101377.66
2023-01-20T18:31:17.307Z,101378.69
2023-01-20T18:33:47.568Z,101382.56
2023-01-20T18:36:23.566Z,101388.13
2023-01-20T18:39:04.684Z,101391.16
2023-01-20T18:41:33.708Z,101389.63
2023-01-20T18:44:01.606Z,101392.53
2023-01-20T18:46:28.985Z,101391.88
2023-01-20T18:48:55.682Z,101400.03
2023-01-20T18:51:25.145Z,101401.97
2023-01-20T18:54:04.808Z,101406.63
2023-01-20T18:56:33.298Z,101408.59
2023-01-20T18:59:00.716Z,101411.41
2023-01-20T19:01:31.097Z,101421.25
2023-01-20T19:03:58.088Z,101422.38
2023-01-20T19:06:27.324Z,101428.69
2023-01-20T19:08:56.770Z,101433.31
2023-01-20T19:11:25.856Z,101437.84
2023-01-20T19:13:53.475Z,101438.88
2023-01-20T19:16:22.618Z,101445.22
2023-01-20T19:18:53.878Z,101454.94
2023-01-20T19:21:21.396Z,101460.31
2023-01-20T19:23:50.038Z,101453.41
2023-01-20T19:26:18.636Z,101454.34
2023-01-20T19:28:46.718Z,101465.03
2023-01-20T19:31:18.725Z,101471.28
2023-01-20T19:33:45.961Z,101473.16
2023-01-20T19:38:42.816Z,101479.56
2023-01-20T19:41:17.572Z,101484.88
2023-01-20T19:43:44.938Z,101484.09
2023-01-20T19:46:17.557Z,101492.94
2023-01-20T19:48:44.652Z,101500.03
2023-01-20T19:51:13.589Z,101499.19
2023-01-20T19:53:40.960Z,101507.25
2023-01-20T19:56:15.729Z,101511.47
2023-01-20T19:58:42.748Z,101509.78
2023-01-20T20:01:17.530Z,101510.75
2023-01-20T20:03:44.689Z,101510.75
2023-01-20T20:06:23.596Z,101515.19
2023-01-20T20:08:51.145Z,101517.84
2023-01-20T20:11:17.467Z,101524.06
2023-01-20T20:13:43.827Z,101523.19
2023-01-20T20:16:10.558Z,101532.94
2023-01-20T20:18:37.032Z,101533.88
2023-01-20T20:21:03.529Z,101542.69
2023-01-20T20:23:29.923Z,101529.50
2023-01-20T20:25:56.446Z,101545.47
2023-01-20T20:28:27.413Z,101549.84
2023-01-20T20:30:56.976Z,101543.84
2023-01-20T20:33:24.149Z,101557.00
2023-01-20T20:35:50.894Z,101560.69
2023-01-20T20:38:17.310Z,101562.53
2023-01-20T20:40:43.753Z,101560.84
2023-01-20T20:43:10.252Z,101568.78
2023-01-20T20:45:36.649Z,101576.81
2023-01-20T20:48:03.048Z,101569.88
2023-01-20T20:50:29.528Z,101576.13
2023-01-20T20:52:57.896Z,101574.50
2023-01-20T20:55:25.327Z,101582.44
2023-01-20T20:57:51.888Z,101581.66
2023-01-20T21:00:23.225Z,101586.16
2023-01-20T21:02:49.767Z,101585.41
2023-01-20T21:05:17.951Z,101589.06
2023-01-20T21:07:44.783Z,101594.44
2023-01-20T21:10:13.754Z,101592.75
2023-01-20T21:12:41.484Z,101599.91
2023-01-20T21:15:10.225Z,101605.25
2023-01-20T21:17:40.138Z,101604.50
2023-01-20T21:20:07.633Z,101604.56
2023-01-20T21:22:34.745Z,101611.72
2023-01-20T21:25:01.117Z,101618.88
2023-01-20T21:27:27.495Z,101626.06
2023-01-20T21:29:53.941Z,101626.13
2023-01-20T21:32:20.293Z,101626.19
2023-01-20T21:34:46.733Z,101632.50
2023-01-20T21:37:13.140Z,101640.53
2023-01-20T21:39:39.481Z,101641.53
2023-01-20T21:42:06.329Z,101636.41
2023-01-20T21:44:33.996Z,101642.63
2023-01-20T21:47:01.823Z,101642.72
2023-01-20T21:49:47.137Z,101656.16
2023-01-20T21:52:40.602Z,101658.88
2023-01-20T21:55:16.273Z,101663.47
2023-01-20T21:57:43.014Z,101680.34
2023-01-20T22:00:11.704Z,101673.50
2023-01-20T22:02:39.233Z,101676.22
2023-01-20T22:05:06.314Z,101688.75
2023-01-20T22:07:32.910Z,101690.50
2023-01-20T22:09:59.479Z,101685.38
2023-01-20T22:12:25.913Z,101693.44
2023-01-20T22:14:52.249Z,101692.66
2023-01-20T22:17:18.675Z,101703.34
2023-01-20T22:19:45.059Z,101707.84
2023-01-20T22:22:12.881Z,101703.53
2023-01-20T22:24:41.646Z,101717.72
2023-01-20T22:27:08.090Z,101712.53
2023-01-20T22:29:34.521Z,101717.97
2023-01-20T22:32:03.120Z,101719.81
2023-01-20T22:34:29.650Z,101727.84
2023-01-20T22:36:57.836Z,101731.50
2023-01-20T22:39:24.178Z,101732.50
2023-01-20T22:41:50.592Z,101732.63
2023-01-20T22:44:16.993Z,101738.84
2023-01-20T22:46:43.312Z,101740.78
2023-01-20T22:49:11.081Z,101750.63
2023-01-20T22:51:37.460Z,101752.50
2023-01-20T22:54:03.968Z,101760.56
2023-01-20T22:56:32.052Z,101758.06
2023-01-20T22:58:59.425Z,101758.28
2023-01-20T23:01:31.726Z,101756.63
2023-01-20T23:04:00.789Z,101762.97
2023-01-20T23:06:29.244Z,101763.09
2023-01-20T23:08:55.627Z,101771.16
2023-01-20T23:11:23.150Z,101773.94
2023-01-20T23:13:50.641Z,101775.00
2023-01-20T23:16:19.259Z,101769.84
2023-01-20T23:18:46.243Z,101784.06
2023-01-20T23:21:13.088Z,101784.19
2023-01-20T23:23:39.417Z,101791.41
2023-01-20T23:26:09.638Z,101789.75
2023-01-20T23:28:36.084Z,101789.00
2023-01-20T23:31:05.524Z,101800.56
2023-01-20T23:33:32.853Z,101805.97
2023-01-20T23:36:11.457Z,101806.97
2023-01-20T23:38:37.887Z,101806.25
2023-01-20T23:41:04.484Z,101808.94
2023-01-20T23:43:31.567Z,101816.06
2023-01-20T23:45:59.620Z,101819.63
2023-01-20T23:48:26.401Z,101812.66
2023-01-20T23:50:53.358Z,101821.47
2023-01-20T23:53:20.286Z,101820.63
2023-01-20T23:55:46.642Z,101824.09
2023-01-20T23:58:12.985Z,101829.47
